Nearby METAR Reports

CWGD - Goderich (autob), Ontario, Canada
Distance from station: SW 47km
Updated: 12/13/2019 3:00pm

 Wind from SSE
Wind: SSE 13 km/h
Temperature: 4°C
Wind Chill: 1°C
Dew Point: -1°C
Humidity: 70%
2019/12/13 20:00 CWGD 132000Z AUTO 15007KT 04/M01 RMK AO1 SLP155 T00401007 56027
CWLS - Mount Forest(Mar, Ontario, Canada
Distance from station: ESE 53km
Updated: 12/13/2019 3:00pm

 Wind from SSE
Wind: SSE 11 km/h
Temperature: 2°C
Wind Chill: -1°C
Dew Point: -2°C
Humidity: 75%
2019/12/13 20:00 CWLS 132000Z AUTO 16006KT 02/M02 RMK AO1 SOG 02 8024 SLP165 T00191020
 
CYVV - Wiarton Air, Ontario, Canada
Distance from station: NNE 75km
Updated: 12/13/2019 3:00pm
Overcast
Overcast
 Wind from S
Wind: S 17 km/h
Temperature: 3°C
Wind Chill: -1°C
Dew Point: -1°C
Humidity: 75%
Barometer: 1013.9 hPa
Clouds: Overcast
Visibility: 24 km
Cloud details: Partly cloudy 2438 m
Overcast 7620 m
2019/12/13 20:00 CYVV 132000Z 18009KT 15SM SCT080 OVC250 03/M01 A2994 RMK AC4CS4 SLP149
CZEL - Elora Rcs, Ontario, Canada
Distance from station: ESE 93km
Updated: 12/13/2019 3:00pm

 Wind from SSE
Wind: SSE 13 km/h
Temperature: 3°C
Wind Chill: -1°C
Dew Point: -3°C
Humidity: 65%
2019/12/13 20:00 CZEL 132000Z AUTO 16007KT 03/M03 RMK AO1 SLP173 T00311030 57024
 
CWCO - Collingwood (aut, Ontario, Canada
Distance from station: ENE 104km
Updated: 12/13/2019 3:00pm

 Wind from SSE
Wind: SSE 6 km/h
Temperature: 4°C
Dew Point: -2°C
Humidity: 65%
2019/12/13 20:00 CWCO 132000Z AUTO 15003KT 04/M02 RMK AO1 SLP154 T00421015 58022
CYKF - Waterloo Well, Ontario, Canada
Distance from station: SE 107km
Updated: 12/13/2019 3:00pm
Partly cloudy
Partly cloudy
 Wind from SE
Wind: SE 19 km/h
Temperature: 4°C
Wind Chill: 0°C
Dew Point: -3°C
Humidity: 61%
Barometer: 1015.2 hPa
Clouds: Partly cloudy
Visibility: 14 km
Cloud details: Partly cloudy 5791 m
2019/12/13 20:00 CYKF 132000Z AUTO 14010KT 9SM SCT190 04/M03 A2998 RMK SLP165
 
KP58 - Port Hope, Michigan, USA
Distance from station: W 114km
Updated: 12/13/2019 3:51pm

 Wind from SSE
Wind: SSE 7 km/h
Temperature: 3°C
Wind Chill: 1°C
Dew Point: -2°C
Humidity: 70%
Barometer: 1012.5 hPa
2019/12/13 20:51 KP58 132051Z AUTO 16004KT 03/M02 A2990 RMK AO1 SLP133 T00281022 56016
CYBN - Borden, Ontario, Canada
Distance from station: E 118km
Updated: 12/13/2019 3:00pm
Mostly cloudy
Mostly cloudy
 Wind from SSE
Wind: SSE 13 km/h
Temperature: 4°C
Wind Chill: 1°C
Dew Point: -3°C
Humidity: 61%
Barometer: 1015.2 hPa
Clouds: Mostly cloudy
Visibility: 14 km
Cloud details: Mostly cloudy 2774 m
2019/12/13 20:00 CYBN 132000Z AUTO 15007KT 9SM BKN091 04/M03 A2998 RMK SLP161
 
CYXU - London Airport, Ontario, Canada
Distance from station: S 123km
Updated: 12/13/2019 3:00pm
Overcast
Overcast
 Wind from SSE
Wind: SSE 17 km/h
Temperature: 3°C
Wind Chill: -1°C
Dew Point: -2°C
Humidity: 70%
Barometer: 1014.9 hPa
Clouds: Overcast
Visibility: 24 km
Cloud details: Few Clouds 4572 m
Overcast 6096 m
2019/12/13 20:00 CYXU 132000Z 15009KT 15SM FEW150 OVC200 03/M02 A2997 RMK AC1CI7 SLP160
CXET - Egbert Cs, Ontario, Canada
Distance from station: E 128km
Updated: 12/13/2019 3:00pm

 Wind from SE
Wind: SE 17 km/h
Temperature: 3°C
Wind Chill: -1°C
Dew Point: -3°C
Humidity: 65%
2019/12/13 20:00 CXET 132000Z AUTO 14009KT 03/M03 RMK AO1 SLP169 T00341028 56025
 
CWMZ - Western Isl (map, Ontario, Canada
Distance from station: NE 129km
Updated: 12/13/2019 3:00pm

 Wind from SSE
Wind: SSE 30 km/h
Temperature: 4°C
Wind Chill: -1°C
Dew Point: -1°C
Humidity: 70%
2019/12/13 20:00 CWMZ 132000Z AUTO 16016KT 04/M01 RMK AO1 PK WND 16019/1907 SLP148 T00391011 56020
KBAX - Bad Axe, Michigan, USA
Distance from station: WSW 133km
Updated: 12/13/2019 3:55pm
Mostly cloudy
Mostly cloudy
 Wind from SSE
Wind: SSE 9 km/h
Temperature: 3°C
Wind Chill: 0°C
Dew Point: -1°C
Humidity: 75%
Barometer: 1012.5 hPa
Clouds: Mostly cloudy
Visibility: 16 km
Cloud details: Mostly cloudy 3353 m
2019/12/13 20:55 KBAX 132055Z AUTO 16005KT 10SM BKN110 03/M01 A2990 RMK AO2 T00251013
 
CWWX - Cove Island (map, Ontario, Canada
Distance from station: NNW 137km
Updated: 12/13/2019 3:00pm

 Wind from SW
Wind: SW 13 km/h
Temperature: 4°C
Wind Chill: 1°C
Dew Point: 1°C
Humidity: 81%
2019/12/13 20:00 CWWX 132000Z AUTO 23007KT 04/01 RMK AO1 SLP135 T00370014 56018
CYZR - Sarnia Airport, Ontario, Canada
Distance from station: SSW 144km
Updated: 12/13/2019 3:00pm
Partly cloudy
Partly cloudy
 Wind from S
Wind: S 22 km/h
Temperature: 4°C
Wind Chill: -1°C
Dew Point: -1°C
Humidity: 70%
Barometer: 1013.5 hPa
Clouds: Partly cloudy
Visibility: 14 km
Cloud details: Partly cloudy 4572 m
Partly cloudy 6706 m
2019/12/13 20:00 CYZR 132000Z AUTO 17012KT 9SM SCT150 SCT220 04/M01 A2993 RMK RVR MISG SLP144
 
CXHM - Hamilton Rbg Cs, Ontario, Canada
Distance from station: SE 150km
Updated: 12/13/2019 3:00pm

 Wind from S
Wind: S 6 km/h
2019/12/13 20:00 CXHM 132000Z AUTO 18003KT RMK AO1 58022
CYYZ - Toronto/Pearson, Ontario, Canada
Distance from station: ESE 150km
Updated: 12/13/2019 3:00pm
Mostly cloudy
Mostly cloudy
 Wind from SSE
Wind: SSE 24 km/h, Gust: 35 km/h
Temperature: 5°C
Wind Chill: 1°C
Dew Point: -3°C
Humidity: 57%
Barometer: 1016.6 hPa
Clouds: Mostly cloudy
Visibility: 24 km
Cloud details: Partly cloudy 3048 m
Mostly cloudy 5486 m
2019/12/13 20:00 CYYZ 132000Z 16013G19KT 15SM SCT100 BKN180 05/M03 A3002 RMK AC3AS4 SLP172
 
CXBI - Barrie-Oro, Ontario, Canada
Distance from station: ENE 151km
Updated: 12/13/2019 3:00pm

 Wind from SE
Wind: SE 15 km/h
Temperature: 2°C
Wind Chill: -2°C
Dew Point: -3°C
Humidity: 70%
2019/12/13 20:00 CXBI 132000Z AUTO 14008KT 02/M03 RMK AO1 SLP172 T00241026 56021
CXDI - Delhi Cs (aut), Ontario, Canada
Distance from station: SSE 154km
Updated: 12/13/2019 3:00pm

 Wind from SSE
Wind: SSE 9 km/h
Temperature: 4°C
Wind Chill: 2°C
Dew Point: -3°C
Humidity: 61%
2019/12/13 20:00 CXDI 132000Z AUTO 16005KT 04/M03 RMK AO1 SLP170 T00401030 56026
 
CWWB - Burlington Piers, Ontario, Canada
Distance from station: SE 157km
Updated: 12/13/2019 3:00pm

 Wind from SSE
Wind: SSE 17 km/h
Temperature: 6°C
Wind Chill: 3°C
Dew Point: -3°C
Humidity: 53%
2019/12/13 20:00 CWWB 132000Z AUTO 15009KT 06/M03 RMK AO1 SLP167 T00551026 57023
CYHM - Hamilton Airport, Ontario, Canada
Distance from station: SE 157km
Updated: 12/13/2019 3:00pm
Mostly cloudy
Mostly cloudy
 Wind from S
Wind: S 13 km/h
Temperature: 4°C
Wind Chill: 1°C
Dew Point: -3°C
Humidity: 61%
Barometer: 1015.9 hPa
Clouds: Mostly cloudy
Visibility: 24 km
Cloud details: Mostly cloudy 1859 m
Mostly cloudy 3658 m
2019/12/13 20:00 CYHM 132000Z 19007KT 15SM BKN061 BKN120 04/M03 A3000 RMK SC5AC2 SLP169